createdAt,value
2018-08-23T00:00:47.172Z,81.79
2018-08-23T00:03:21.174Z,82.00
2018-08-23T00:05:53.168Z,81.93
2018-08-23T00:08:23.127Z,82.28
2018-08-23T00:10:52.612Z,82.05
2018-08-23T00:13:21.985Z,82.39
2018-08-23T00:15:51.262Z,82.51
2018-08-23T00:18:20.019Z,82.36
2018-08-23T00:20:48.662Z,82.19
2018-08-23T00:23:17.548Z,82.25
2018-08-23T00:25:46.556Z,82.47
2018-08-23T00:28:15.355Z,82.15
2018-08-23T00:30:46.242Z,82.16
2018-08-23T00:33:15.570Z,82.27
2018-08-23T00:35:44.505Z,82.18
2018-08-23T00:38:13.179Z,82.17
2018-08-23T00:40:44.256Z,82.53
2018-08-23T00:43:14.955Z,82.19
2018-08-23T00:45:44.247Z,82.05
2018-08-23T00:48:13.173Z,82.07
2018-08-23T00:50:54.437Z,81.86
2018-08-23T00:53:23.606Z,82.13
2018-08-23T00:56:26.733Z,82.86
2018-08-23T00:59:02.826Z,82.31
2018-08-23T01:01:32.600Z,82.45
2018-08-23T01:04:01.404Z,82.17
2018-08-23T01:06:43.146Z,82.50
2018-08-23T01:09:13.074Z,82.32
2018-08-23T01:11:41.878Z,82.35
2018-08-23T01:14:10.629Z,82.36
2018-08-23T01:16:39.355Z,82.94
2018-08-23T01:19:13.403Z,82.56
2018-08-23T01:21:59.706Z,82.79
2018-08-23T01:24:30.920Z,83.03
2018-08-23T01:26:59.687Z,82.57
2018-08-23T01:29:30.156Z,82.29
2018-08-23T01:32:07.499Z,82.49
2018-08-23T01:34:36.539Z,82.76
2018-08-23T01:37:06.051Z,82.43
2018-08-23T01:39:35.302Z,82.77
2018-08-23T01:42:04.314Z,82.94
2018-08-23T01:44:37.178Z,82.95
2018-08-23T01:47:05.837Z,82.65
2018-08-23T01:49:35.481Z,83.05
2018-08-23T01:52:04.275Z,83.01
2018-08-23T01:54:33.020Z,82.81
2018-08-23T01:57:01.857Z,82.72
2018-08-23T01:59:30.621Z,82.96
2018-08-23T02:02:00.025Z,82.97
2018-08-23T02:04:29.073Z,82.91
2018-08-23T02:06:57.872Z,83.01
2018-08-23T02:09:27.147Z,83.52
2018-08-23T02:11:55.825Z,83.17
2018-08-23T02:14:25.431Z,83.01
2018-08-23T02:16:54.236Z,83.15
2018-08-23T02:19:23.362Z,82.96
2018-08-23T02:21:52.243Z,83.06
2018-08-23T02:24:25.286Z,83.18
2018-08-23T02:26:53.963Z,83.09
2018-08-23T02:29:33.806Z,82.87
2018-08-23T02:32:02.694Z,83.12
2018-08-23T02:34:35.907Z,83.18
2018-08-23T02:37:04.798Z,83.15
2018-08-23T02:39:33.704Z,83.47
2018-08-23T02:42:02.451Z,83.23
2018-08-23T02:44:31.135Z,83.44
2018-08-23T02:47:02.064Z,83.53
2018-08-23T02:49:31.301Z,83.07
2018-08-23T02:52:00.232Z,83.30
2018-08-23T02:54:29.034Z,83.59
2018-08-23T02:56:59.059Z,83.79
2018-08-23T02:59:28.387Z,83.82
2018-08-23T03:01:57.210Z,83.77
2018-08-23T03:04:28.090Z,83.63
2018-08-23T03:07:01.954Z,83.81
2018-08-23T03:09:45.693Z,83.98
2018-08-23T03:12:19.302Z,83.64
2018-08-23T03:14:48.438Z,83.37
2018-08-23T03:17:20.652Z,83.53
2018-08-23T03:19:59.123Z,83.59
2018-08-23T03:22:28.444Z,83.39
2018-08-23T03:24:58.752Z,83.96
2018-08-23T03:27:27.878Z,83.69
2018-08-23T03:29:56.978Z,83.82
2018-08-23T03:32:26.157Z,83.70
2018-08-23T03:34:55.031Z,84.09
2018-08-23T03:37:23.981Z,83.90
2018-08-23T03:39:52.738Z,84.08
2018-08-23T03:42:21.363Z,83.92
2018-08-23T03:44:52.731Z,83.85
2018-08-23T03:47:21.568Z,84.15
2018-08-23T03:49:50.680Z,83.85
2018-08-23T03:52:27.615Z,83.82
2018-08-23T03:55:02.452Z,83.83
2018-08-23T03:57:36.470Z,84.06
2018-08-23T04:00:05.361Z,83.92
2018-08-23T04:02:34.237Z,84.02
2018-08-23T04:05:09.636Z,83.80
2018-08-23T04:07:39.719Z,83.56
2018-08-23T04:10:08.935Z,83.80
2018-08-23T04:12:40.733Z,83.89
2018-08-23T04:15:26.217Z,83.84
2018-08-23T04:17:54.846Z,84.05
2018-08-23T04:20:23.894Z,84.00
2018-08-23T04:22:52.996Z,83.85
2018-08-23T04:25:21.840Z,84.04
2018-08-23T04:27:50.565Z,84.13
2018-08-23T04:30:19.386Z,84.43
2018-08-23T04:32:49.128Z,84.58
2018-08-23T04:35:23.352Z,84.18
2018-08-23T04:37:52.579Z,84.79
2018-08-23T04:40:21.183Z,84.69
2018-08-23T04:42:50.112Z,84.76
2018-08-23T04:45:24.642Z,84.78
2018-08-23T04:47:58.624Z,84.88
2018-08-23T04:50:27.726Z,84.48
2018-08-23T04:52:56.502Z,84.89
2018-08-23T04:55:25.852Z,84.56
2018-08-23T04:57:54.940Z,84.46
2018-08-23T05:00:23.798Z,84.60
2018-08-23T05:02:52.560Z,84.79
2018-08-23T05:05:21.489Z,85.05
2018-08-23T05:07:50.327Z,85.27
2018-08-23T05:10:19.188Z,85.33
2018-08-23T05:12:47.980Z,85.24
2018-08-23T05:15:17.138Z,85.23
2018-08-23T05:17:46.240Z,85.04
2018-08-23T05:20:14.955Z,84.84
2018-08-23T05:22:51.818Z,84.49
2018-08-23T05:25:22.577Z,84.49
2018-08-23T05:28:05.392Z,84.11
2018-08-23T05:30:34.371Z,83.43
2018-08-23T05:33:22.689Z,83.29
2018-08-23T05:35:51.389Z,82.63
2018-08-23T05:38:20.635Z,82.39
2018-08-23T05:41:00.330Z,82.46
2018-08-23T05:43:28.945Z,82.07
2018-08-23T05:45:57.874Z,81.81
2018-08-23T05:48:32.770Z,81.22
2018-08-23T05:51:10.696Z,78.78
2018-08-23T05:53:42.752Z,78.99
2018-08-23T05:56:11.724Z,79.58
2018-08-23T05:58:40.576Z,79.32
2018-08-23T06:01:09.303Z,78.54
2018-08-23T06:03:38.791Z,78.81
2018-08-23T06:06:07.854Z,78.44
2018-08-23T06:08:36.790Z,79.16
2018-08-23T06:11:09.532Z,78.58
2018-08-23T06:13:38.755Z,78.29
2018-08-23T06:16:07.682Z,78.36
2018-08-23T06:18:36.551Z,76.40
2018-08-23T06:21:05.262Z,73.22
2018-08-23T06:23:59.092Z,71.43
2018-08-23T06:26:50.444Z,69.65
2018-08-23T06:29:26.251Z,70.38
2018-08-23T06:32:10.370Z,71.44
2018-08-23T06:34:45.833Z,71.96
2018-08-23T06:37:15.182Z,71.85
2018-08-23T06:39:44.373Z,70.19
2018-08-23T06:42:13.070Z,69.38
2018-08-23T06:44:47.174Z,70.33
2018-08-23T06:47:18.843Z,68.89
2018-08-23T06:49:48.899Z,69.42
2018-08-23T06:52:27.965Z,67.31
2018-08-23T06:54:57.001Z,65.38
2018-08-23T06:57:25.969Z,64.29
2018-08-23T06:59:54.872Z,61.26
2018-08-23T07:02:23.686Z,60.01
2018-08-23T07:04:52.442Z,58.13
2018-08-23T07:07:21.060Z,58.44
2018-08-23T07:09:49.890Z,57.80
2018-08-23T07:12:18.577Z,57.06
2018-08-23T07:14:48.598Z,56.56
2018-08-23T07:17:22.718Z,57.57
2018-08-23T07:19:52.050Z,53.44
2018-08-23T07:22:27.163Z,51.50
2018-08-23T07:24:57.655Z,49.92
2018-08-23T07:27:26.638Z,49.35
2018-08-23T07:29:56.985Z,48.59
2018-08-23T07:32:29.341Z,46.94
2018-08-23T07:35:04.173Z,49.30
2018-08-23T07:37:35.203Z,47.52
2018-08-23T07:40:14.190Z,47.60
2018-08-23T07:42:44.167Z,47.37
2018-08-23T07:45:13.207Z,50.68
2018-08-23T07:47:43.387Z,49.53
2018-08-23T07:50:12.099Z,50.41
2018-08-23T07:52:43.188Z,53.04
2018-08-23T07:55:12.035Z,51.60
2018-08-23T07:57:41.649Z,52.21
2018-08-23T08:00:28.869Z,52.42
2018-08-23T08:02:57.720Z,51.68
2018-08-23T08:05:31.119Z,50.03
2018-08-23T08:07:59.998Z,49.88
2018-08-23T08:10:32.852Z,51.90
2018-08-23T08:13:01.771Z,51.68
2018-08-23T08:15:30.423Z,52.12
2018-08-23T08:18:19.356Z,51.21
2018-08-23T08:20:54.543Z,49.71
2018-08-23T08:23:23.525Z,48.56
2018-08-23T08:25:52.414Z,50.53
2018-08-23T08:28:21.394Z,50.05
2018-08-23T08:30:56.402Z,50.73
2018-08-23T08:33:25.537Z,49.86
2018-08-23T08:36:01.136Z,51.52
2018-08-23T08:38:30.593Z,51.81
2018-08-23T08:41:02.101Z,50.35
2018-08-23T08:43:31.066Z,49.44
2018-08-23T08:46:00.458Z,49.85
2018-08-23T08:48:31.496Z,50.73
2018-08-23T08:51:16.722Z,49.48
2018-08-23T08:53:46.191Z,52.00
2018-08-23T08:56:15.216Z,49.94
2018-08-23T08:58:44.568Z,51.56
2018-08-23T09:01:13.332Z,49.31
2018-08-23T09:03:42.498Z,49.35
2018-08-23T09:06:12.873Z,46.73
2018-08-23T09:08:41.796Z,46.70
2018-08-23T09:11:10.871Z,45.29
2018-08-23T09:13:45.055Z,44.30
2018-08-23T09:16:13.680Z,45.34
2018-08-23T09:18:44.094Z,46.45
2018-08-23T09:21:13.010Z,45.51
2018-08-23T09:23:41.985Z,44.88
2018-08-23T09:26:10.773Z,46.01
2018-08-23T09:28:39.507Z,46.64
2018-08-23T09:31:08.421Z,46.60
2018-08-23T09:33:37.237Z,47.01
2018-08-23T09:36:05.930Z,45.75
2018-08-23T09:38:34.919Z,45.74
2018-08-23T09:41:03.781Z,43.73
2018-08-23T09:43:33.741Z,43.25
2018-08-23T09:46:02.553Z,43.12
2018-08-23T09:48:31.313Z,43.40
2018-08-23T09:51:00.318Z,43.37
2018-08-23T09:53:29.339Z,43.85
2018-08-23T09:55:58.101Z,44.64
2018-08-23T09:58:32.314Z,42.77
2018-08-23T10:01:06.373Z,42.38
2018-08-23T10:03:40.295Z,43.86
2018-08-23T10:06:14.241Z,42.16
2018-08-23T10:08:48.280Z,41.43
2018-08-23T10:11:22.204Z,41.26
2018-08-23T10:13:56.076Z,39.67
2018-08-23T10:16:30.098Z,39.01
2018-08-23T10:19:01.298Z,38.77
2018-08-23T10:21:35.504Z,38.25
2018-08-23T10:24:15.538Z,37.37
2018-08-23T10:26:45.193Z,36.92
2018-08-23T10:29:14.516Z,37.57
2018-08-23T10:31:43.226Z,37.19
2018-08-23T10:34:11.938Z,37.11
2018-08-23T10:36:41.176Z,36.49
2018-08-23T10:39:12.700Z,35.82
2018-08-23T10:41:42.241Z,36.03
2018-08-23T10:44:11.076Z,35.58
2018-08-23T10:46:45.187Z,36.23
2018-08-23T10:49:13.952Z,35.94
2018-08-23T10:51:42.957Z,36.37
2018-08-23T10:54:11.765Z,36.42
2018-08-23T10:56:40.445Z,34.70
2018-08-23T10:59:09.570Z,34.05
2018-08-23T11:01:38.402Z,34.68
2018-08-23T11:04:09.160Z,34.13
2018-08-23T11:06:42.239Z,34.03
2018-08-23T11:09:16.075Z,34.08
2018-08-23T11:11:46.044Z,33.16
2018-08-23T11:14:19.944Z,33.79
2018-08-23T11:16:53.948Z,33.53
2018-08-23T11:19:29.094Z,33.14
2018-08-23T11:21:58.049Z,33.36
2018-08-23T11:24:27.088Z,34.67
2018-08-23T11:26:55.818Z,33.82
2018-08-23T11:29:24.633Z,32.45
2018-08-23T11:31:53.396Z,33.02
2018-08-23T11:34:22.103Z,33.67
2018-08-23T11:36:50.858Z,34.33
2018-08-23T11:39:19.671Z,36.30
2018-08-23T11:41:48.463Z,35.31
2018-08-23T11:44:17.314Z,36.13
2018-08-23T11:46:46.131Z,34.30
2018-08-23T11:49:15.012Z,33.93
2018-08-23T11:51:43.889Z,35.39
2018-08-23T11:54:12.735Z,35.93
2018-08-23T11:56:41.509Z,38.04
2018-08-23T11:59:10.254Z,36.18
2018-08-23T12:01:38.977Z,35.91
2018-08-23T12:04:07.926Z,36.22
2018-08-23T12:06:36.842Z,36.56
2018-08-23T12:09:07.686Z,35.13
2018-08-23T12:11:36.540Z,33.60
2018-08-23T12:14:05.558Z,33.76
2018-08-23T12:16:34.709Z,33.42
2018-08-23T12:19:03.564Z,33.77
2018-08-23T12:21:32.285Z,34.10
2018-08-23T12:24:00.940Z,32.76
2018-08-23T12:26:29.687Z,33.31
2018-08-23T12:29:03.719Z,32.73
2018-08-23T12:31:32.412Z,33.33
2018-08-23T12:34:03.913Z,33.85
2018-08-23T12:36:38.000Z,34.30
2018-08-23T12:39:14.071Z,32.87
2018-08-23T12:41:48.446Z,32.62
2018-08-23T12:44:18.035Z,30.84
2018-08-23T12:46:46.882Z,32.90
2018-08-23T12:49:15.992Z,31.39
2018-08-23T12:51:44.893Z,29.98
2018-08-23T12:54:13.782Z,29.98
2018-08-23T12:56:42.567Z,29.46
2018-08-23T12:59:11.554Z,30.20
2018-08-23T13:01:40.473Z,30.64
2018-08-23T13:04:09.231Z,30.53
2018-08-23T13:06:38.025Z,31.48
2018-08-23T13:09:07.575Z,29.59
2018-08-23T13:11:36.494Z,29.46
2018-08-23T13:14:05.524Z,30.06
2018-08-23T13:16:34.408Z,30.47
2018-08-23T13:19:03.429Z,30.47
2018-08-23T13:21:32.296Z,30.84
2018-08-23T13:24:01.141Z,30.49
2018-08-23T13:26:35.022Z,31.45
2018-08-23T13:29:04.089Z,32.43
2018-08-23T13:31:32.807Z,33.16
2018-08-23T13:34:02.076Z,32.84
2018-08-23T13:36:30.923Z,33.14
2018-08-23T13:39:00.016Z,33.94
2018-08-23T13:41:28.747Z,33.87
2018-08-23T13:43:57.592Z,34.63
2018-08-23T13:46:26.412Z,34.39
2018-08-23T13:48:55.121Z,34.99
2018-08-23T13:51:24.037Z,32.73
2018-08-23T13:53:52.798Z,33.03
2018-08-23T13:56:21.559Z,30.94
2018-08-23T13:58:50.294Z,28.97
2018-08-23T14:01:19.366Z,26.79
2018-08-23T14:03:48.243Z,25.92
2018-08-23T14:06:17.068Z,25.37
2018-08-23T14:08:45.817Z,25.39
2018-08-23T14:11:15.267Z,25.01
2018-08-23T14:13:44.589Z,26.17
2018-08-23T14:16:13.195Z,29.79
2018-08-23T14:18:41.930Z,30.31
2018-08-23T14:21:10.884Z,31.77
2018-08-23T14:23:39.478Z,28.06
2018-08-23T14:26:08.510Z,26.02
2018-08-23T14:28:37.808Z,24.73
2018-08-23T14:31:06.578Z,25.52
2018-08-23T14:33:35.285Z,24.65
2018-08-23T14:36:04.078Z,23.47
2018-08-23T14:38:33.188Z,22.77
2018-08-23T14:41:02.103Z,23.87
2018-08-23T14:43:30.721Z,25.21
2018-08-23T14:46:04.767Z,26.00
2018-08-23T14:48:33.690Z,25.29
2018-08-23T14:51:02.627Z,24.47
2018-08-23T14:53:32.079Z,24.45
2018-08-23T14:56:06.253Z,24.00
2018-08-23T14:58:35.202Z,25.49
2018-08-23T15:01:04.058Z,28.14
2018-08-23T15:03:32.993Z,29.02
2018-08-23T15:06:01.636Z,30.99
2018-08-23T15:08:30.425Z,30.48
2018-08-23T15:10:59.458Z,29.34
2018-08-23T15:13:28.337Z,27.48
2018-08-23T15:15:57.487Z,27.13
2018-08-23T15:18:26.717Z,26.00
2018-08-23T15:20:55.635Z,26.67
2018-08-23T15:23:24.214Z,27.18
2018-08-23T15:25:52.877Z,28.40
2018-08-23T15:28:21.903Z,27.47
2018-08-23T15:30:50.718Z,28.36
2018-08-23T15:33:19.314Z,28.88
2018-08-23T15:35:48.240Z,28.38
2018-08-23T15:38:23.558Z,27.37
2018-08-23T15:40:52.398Z,27.40
2018-08-23T15:43:21.557Z,29.18
2018-08-23T15:45:50.236Z,28.62
2018-08-23T15:48:18.948Z,29.39
2018-08-23T15:50:47.685Z,30.47
2018-08-23T15:53:16.481Z,30.79
2018-08-23T15:55:46.587Z,31.62
2018-08-23T15:58:15.541Z,32.44
2018-08-23T16:00:44.440Z,32.10
2018-08-23T16:03:13.230Z,31.98
2018-08-23T16:05:42.525Z,32.61
2018-08-23T16:08:11.478Z,32.79
2018-08-23T16:10:40.865Z,32.63
2018-08-23T16:13:10.430Z,32.96
2018-08-23T16:15:40.143Z,33.32
2018-08-23T16:18:14.013Z,33.85
2018-08-23T16:20:52.162Z,33.77
2018-08-23T16:23:22.220Z,34.02
2018-08-23T16:25:51.496Z,34.70
2018-08-23T16:28:20.931Z,34.63
2018-08-23T16:30:50.736Z,34.72
2018-08-23T16:33:20.446Z,35.32
2018-08-23T16:35:53.724Z,35.47
2018-08-23T16:38:23.440Z,35.14
2018-08-23T16:40:53.008Z,36.43
2018-08-23T16:43:22.624Z,36.02
2018-08-23T16:45:51.593Z,36.63
2018-08-23T16:48:21.685Z,36.33
2018-08-23T16:50:50.792Z,36.52
2018-08-23T16:53:19.445Z,35.65
2018-08-23T16:55:48.200Z,36.23
2018-08-23T16:58:17.209Z,36.54
2018-08-23T17:00:45.957Z,36.21
2018-08-23T17:03:14.728Z,36.43
2018-08-23T17:05:43.822Z,36.31
2018-08-23T17:08:12.742Z,36.79
2018-08-23T17:10:42.255Z,36.94
2018-08-23T17:13:15.353Z,37.41
2018-08-23T17:15:49.789Z,38.04
2018-08-23T17:18:19.580Z,38.47
2018-08-23T17:20:48.468Z,38.64
2018-08-23T17:23:17.381Z,38.13
2018-08-23T17:25:46.535Z,38.26
2018-08-23T17:28:15.304Z,38.20
2018-08-23T17:30:44.258Z,38.03
2018-08-23T17:33:12.982Z,38.63
2018-08-23T17:35:41.713Z,38.74
2018-08-23T17:38:10.751Z,39.57
2018-08-23T17:40:40.621Z,39.96
2018-08-23T17:43:09.810Z,40.87
2018-08-23T17:45:39.166Z,41.18
2018-08-23T17:48:08.313Z,41.96
2018-08-23T17:50:37.408Z,41.23
2018-08-23T17:53:07.187Z,42.85
2018-08-23T17:55:36.417Z,43.30
2018-08-23T17:58:05.262Z,43.37
2018-08-23T18:00:34.100Z,43.69
2018-08-23T18:03:02.981Z,43.69
2018-08-23T18:05:31.959Z,43.79
2018-08-23T18:08:00.652Z,44.13
2018-08-23T18:10:29.560Z,44.74
2018-08-23T18:12:58.525Z,44.63
2018-08-23T18:15:32.749Z,44.88
2018-08-23T18:18:02.245Z,45.74
2018-08-23T18:20:31.464Z,46.39
2018-08-23T18:23:00.042Z,46.58
2018-08-23T18:25:29.530Z,46.47
2018-08-23T18:27:58.468Z,46.89
2018-08-23T18:30:27.392Z,46.83
2018-08-23T18:32:56.133Z,46.85
2018-08-23T18:35:25.430Z,47.25
2018-08-23T18:37:54.281Z,48.65
2018-08-23T18:40:23.269Z,48.50
2018-08-23T18:42:53.026Z,49.01
2018-08-23T18:45:21.706Z,49.74
2018-08-23T18:47:50.396Z,50.42
2018-08-23T18:50:19.304Z,50.56
2018-08-23T18:52:48.658Z,51.23
2018-08-23T18:55:17.542Z,50.96
2018-08-23T18:57:46.563Z,51.12
2018-08-23T19:00:15.490Z,51.62
2018-08-23T19:02:44.447Z,51.99
2018-08-23T19:05:13.698Z,52.02
2018-08-23T19:07:43.874Z,52.57
2018-08-23T19:10:13.943Z,52.67
2018-08-23T19:12:43.284Z,52.52
2018-08-23T19:15:12.155Z,52.85
2018-08-23T19:17:43.193Z,53.64
2018-08-23T19:20:13.383Z,53.70
2018-08-23T19:22:42.057Z,54.45
2018-08-23T19:25:11.617Z,55.19
2018-08-23T19:27:40.377Z,55.32
2018-08-23T19:30:09.804Z,55.39
2018-08-23T19:32:39.066Z,55.70
2018-08-23T19:35:08.191Z,56.08
2018-08-23T19:37:36.946Z,55.80
2018-08-23T19:40:05.937Z,56.24
2018-08-23T19:42:34.742Z,57.56
2018-08-23T19:45:03.537Z,56.08
2018-08-23T19:47:37.489Z,56.32
2018-08-23T19:50:09.198Z,55.94
2018-08-23T19:52:38.148Z,56.48
2018-08-23T19:55:10.557Z,57.06
2018-08-23T19:57:39.447Z,57.81
2018-08-23T20:00:09.995Z,57.74
2018-08-23T20:02:38.980Z,58.02
2018-08-23T20:05:07.946Z,58.20
2018-08-23T20:07:36.804Z,58.00
2018-08-23T20:10:05.515Z,58.07
2018-08-23T20:12:34.243Z,59.06
2018-08-23T20:15:02.822Z,59.63
2018-08-23T20:17:31.695Z,59.02
2018-08-23T20:20:00.550Z,60.47
2018-08-23T20:22:29.491Z,60.01
2018-08-23T20:24:58.351Z,60.19
2018-08-23T20:27:27.974Z,60.16
2018-08-23T20:29:56.704Z,60.38
2018-08-23T20:32:25.638Z,60.39
2018-08-23T20:34:54.895Z,59.81
2018-08-23T20:37:23.775Z,61.01
2018-08-23T20:39:53.076Z,60.98
2018-08-23T20:42:21.810Z,62.26
2018-08-23T20:44:50.767Z,61.31
2018-08-23T20:47:19.492Z,62.43
2018-08-23T20:49:49.410Z,62.44
2018-08-23T20:52:18.956Z,62.44
2018-08-23T20:54:48.815Z,63.04
2018-08-23T20:57:17.887Z,63.19
2018-08-23T20:59:47.317Z,63.17
2018-08-23T21:02:16.383Z,64.18
2018-08-23T21:04:45.996Z,65.80
2018-08-23T21:07:15.290Z,64.46
2018-08-23T21:09:44.690Z,64.67
2018-08-23T21:12:14.634Z,65.01
2018-08-23T21:14:43.728Z,66.90
2018-08-23T21:17:13.406Z,65.28
2018-08-23T21:19:43.130Z,67.17
2018-08-23T21:22:12.525Z,66.41
2018-08-23T21:24:41.328Z,66.66
2018-08-23T21:27:10.259Z,66.44
2018-08-23T21:29:39.281Z,66.77
2018-08-23T21:32:08.008Z,68.81
2018-08-23T21:34:37.009Z,67.81
2018-08-23T21:37:06.162Z,67.81
2018-08-23T21:39:35.001Z,68.91
2018-08-23T21:42:03.963Z,68.40
2018-08-23T21:44:32.652Z,68.70
2018-08-23T21:47:01.344Z,68.95
2018-08-23T21:49:30.147Z,68.62
2018-08-23T21:51:59.088Z,69.27
2018-08-23T21:54:28.011Z,68.77
2018-08-23T21:56:56.822Z,68.64
2018-08-23T21:59:25.697Z,68.83
2018-08-23T22:01:59.941Z,68.93
2018-08-23T22:04:28.697Z,68.55
2018-08-23T22:06:57.407Z,68.45
2018-08-23T22:09:26.354Z,68.69
2018-08-23T22:11:55.171Z,68.95
2018-08-23T22:14:23.971Z,69.02
2018-08-23T22:16:52.698Z,70.33
2018-08-23T22:19:21.584Z,69.52
2018-08-23T22:21:50.575Z,69.18
2018-08-23T22:24:19.329Z,70.47
2018-08-23T22:26:48.542Z,69.74
2018-08-23T22:29:17.448Z,69.69
2018-08-23T22:31:46.894Z,69.97
2018-08-23T22:34:15.534Z,69.94
2018-08-23T22:36:44.231Z,70.23
2018-08-23T22:39:13.121Z,70.05
2018-08-23T22:41:41.860Z,70.58
2018-08-23T22:44:11.032Z,69.79
2018-08-23T22:46:40.137Z,70.10
2018-08-23T22:49:09.102Z,69.99
2018-08-23T22:51:37.903Z,70.86
2018-08-23T22:54:06.849Z,70.82
2018-08-23T22:56:35.814Z,70.40
2018-08-23T22:59:04.737Z,70.23
2018-08-23T23:01:33.428Z,70.49
2018-08-23T23:04:07.427Z,70.68
2018-08-23T23:06:36.197Z,70.37
2018-08-23T23:09:07.487Z,70.09
2018-08-23T23:11:36.310Z,69.97
2018-08-23T23:14:06.543Z,70.93
2018-08-23T23:16:35.211Z,70.09
2018-08-23T23:19:04.443Z,70.20
2018-08-23T23:21:33.413Z,70.36
2018-08-23T23:24:02.751Z,70.08
2018-08-23T23:26:31.421Z,69.99
2018-08-23T23:29:00.539Z,70.01
2018-08-23T23:31:29.223Z,70.17
2018-08-23T23:33:57.987Z,70.45
2018-08-23T23:36:26.588Z,70.58
2018-08-23T23:38:55.305Z,70.23
2018-08-23T23:41:24.154Z,70.20
2018-08-23T23:43:53.074Z,70.33
2018-08-23T23:46:21.702Z,70.42
2018-08-23T23:48:50.400Z,70.10
2018-08-23T23:51:19.072Z,70.52
2018-08-23T23:53:48.084Z,70.51
2018-08-23T23:56:16.733Z,69.80
2018-08-23T23:58:45.388Z,70.52
